createdAt,value
2018-07-04T00:00:45.291Z,0.00
2018-07-04T00:01:45.294Z,0.00
2018-07-04T00:02:45.289Z,0.00
2018-07-04T00:03:45.407Z,0.00
2018-07-04T00:04:45.347Z,0.00
2018-07-04T00:05:45.358Z,0.00
2018-07-04T00:06:45.343Z,0.00
2018-07-04T00:07:45.356Z,0.00
2018-07-04T00:08:45.549Z,0.00
2018-07-04T00:09:45.392Z,0.00
2018-07-04T00:10:45.409Z,0.00
2018-07-04T00:11:45.427Z,0.00
2018-07-04T00:12:45.432Z,0.00
2018-07-04T00:13:45.590Z,0.00
2018-07-04T00:14:45.453Z,0.00
2018-07-04T00:15:45.492Z,0.00
2018-07-04T00:16:45.503Z,0.00
2018-07-04T00:17:45.520Z,0.00
2018-07-04T00:18:45.605Z,0.00
2018-07-04T00:19:45.518Z,0.00
2018-07-04T00:20:45.543Z,0.00
2018-07-04T00:21:45.549Z,0.00
2018-07-04T00:22:45.587Z,0.00
2018-07-04T00:23:45.670Z,0.00
2018-07-04T00:24:45.581Z,0.00
2018-07-04T00:25:45.664Z,0.00
2018-07-04T00:26:45.640Z,0.00
2018-07-04T00:27:45.627Z,0.00
2018-07-04T00:28:45.740Z,0.00
2018-07-04T00:29:45.676Z,0.00
2018-07-04T00:30:45.673Z,0.00
2018-07-04T00:31:45.702Z,0.00
2018-07-04T00:32:45.717Z,0.00
2018-07-04T00:33:45.884Z,0.00
2018-07-04T00:34:45.745Z,0.00
2018-07-04T00:35:45.733Z,0.00
2018-07-04T00:36:45.773Z,0.00
2018-07-04T00:37:45.757Z,0.00
2018-07-04T00:38:45.866Z,0.00
2018-07-04T00:39:45.821Z,0.00
2018-07-04T00:40:45.797Z,0.00
2018-07-04T00:41:45.836Z,0.00
2018-07-04T00:42:45.827Z,0.00
2018-07-04T00:43:45.961Z,0.00
2018-07-04T00:44:45.879Z,0.00
2018-07-04T00:45:45.859Z,0.00
2018-07-04T00:46:45.877Z,0.00
2018-07-04T00:47:45.886Z,0.00
2018-07-04T00:48:46.029Z,0.00
2018-07-04T00:49:45.935Z,0.00
2018-07-04T00:50:45.954Z,0.00
2018-07-04T00:51:45.942Z,0.00
2018-07-04T00:52:45.983Z,0.00
2018-07-04T00:53:46.128Z,0.00
2018-07-04T00:54:45.989Z,0.00
2018-07-04T00:55:46.011Z,0.00
2018-07-04T00:56:46.012Z,0.00
2018-07-04T00:57:46.026Z,0.00
2018-07-04T00:58:46.135Z,0.00
2018-07-04T00:59:46.045Z,0.00
2018-07-04T01:00:46.066Z,0.00
2018-07-04T01:01:46.104Z,0.00
2018-07-04T01:02:46.088Z,0.00
2018-07-04T01:03:46.200Z,0.00
2018-07-04T01:04:46.140Z,0.00
2018-07-04T01:05:46.130Z,0.00
2018-07-04T01:06:46.144Z,0.00
2018-07-04T01:07:46.186Z,0.00
2018-07-04T01:08:46.270Z,0.00
2018-07-04T01:09:46.201Z,0.00
2018-07-04T01:10:46.199Z,0.00
2018-07-04T01:11:46.206Z,0.00
2018-07-04T01:12:46.219Z,0.00
2018-07-04T01:13:46.392Z,0.00
2018-07-04T01:14:46.245Z,0.00
2018-07-04T01:15:46.261Z,0.00
2018-07-04T01:16:46.268Z,0.00
2018-07-04T01:17:46.285Z,0.00
2018-07-04T01:18:46.403Z,0.00
2018-07-04T01:19:46.339Z,0.00
2018-07-04T01:20:46.323Z,0.00
2018-07-04T01:21:46.371Z,0.00
2018-07-04T01:22:46.380Z,0.00
2018-07-04T01:23:46.481Z,0.00
2018-07-04T01:24:46.377Z,0.00
2018-07-04T01:25:46.420Z,0.00
2018-07-04T01:26:46.405Z,0.00
2018-07-04T01:27:46.443Z,0.00
2018-07-04T01:28:46.557Z,0.00
2018-07-04T01:29:46.445Z,0.00
2018-07-04T01:30:46.458Z,0.00
2018-07-04T01:31:46.489Z,0.00
2018-07-04T01:32:46.507Z,0.00
2018-07-04T01:33:46.655Z,0.00
2018-07-04T01:34:46.507Z,0.00
2018-07-04T01:35:46.546Z,0.00
2018-07-04T01:36:46.534Z,0.00
2018-07-04T01:37:46.546Z,0.00
2018-07-04T01:38:46.660Z,0.00
2018-07-04T01:39:46.575Z,0.00
2018-07-04T01:40:46.611Z,0.00
2018-07-04T01:41:46.605Z,0.00
2018-07-04T01:42:46.637Z,0.00
2018-07-04T01:43:46.810Z,0.00
2018-07-04T01:44:46.668Z,0.00
2018-07-04T01:45:46.662Z,0.00
2018-07-04T01:46:46.696Z,0.00
2018-07-04T01:47:46.686Z,0.00
2018-07-04T01:48:46.843Z,0.00
2018-07-04T01:49:46.736Z,0.00
2018-07-04T01:50:46.748Z,0.00
2018-07-04T01:51:46.748Z,0.00
2018-07-04T01:52:46.745Z,0.00
2018-07-04T01:53:46.917Z,0.00
2018-07-04T01:54:46.779Z,0.00
2018-07-04T01:55:46.792Z,0.00
2018-07-04T01:56:46.796Z,0.00
2018-07-04T01:57:46.814Z,0.00
2018-07-04T01:58:46.974Z,0.00
2018-07-04T01:59:46.877Z,0.00
2018-07-04T02:00:46.853Z,0.00
2018-07-04T02:01:46.894Z,0.00
2018-07-04T02:02:46.874Z,0.00
2018-07-04T02:03:46.989Z,0.00
2018-07-04T02:04:46.933Z,0.00
2018-07-04T02:05:46.918Z,0.00
2018-07-04T02:06:46.929Z,0.00
2018-07-04T02:07:46.942Z,0.00
2018-07-04T02:08:46.981Z,0.00
2018-07-04T02:09:47.093Z,0.00
2018-07-04T02:10:46.981Z,0.00
2018-07-04T02:11:46.995Z,0.00
2018-07-04T02:12:47.036Z,0.00
2018-07-04T02:13:47.029Z,0.00
2018-07-04T02:14:47.236Z,0.00
2018-07-04T02:15:47.067Z,0.00
2018-07-04T02:16:47.065Z,0.00
2018-07-04T02:17:47.072Z,0.00
2018-07-04T02:18:47.085Z,0.00
2018-07-04T02:19:47.254Z,0.00
2018-07-04T02:20:47.112Z,0.00
2018-07-04T02:21:47.169Z,0.00
2018-07-04T02:22:47.137Z,0.00
2018-07-04T02:23:47.177Z,0.00
2018-07-04T02:24:47.269Z,0.00
2018-07-04T02:25:47.180Z,0.00
2018-07-04T02:26:47.202Z,0.00
2018-07-04T02:27:47.223Z,0.00
2018-07-04T02:28:47.241Z,0.00
2018-07-04T02:29:47.356Z,0.00
2018-07-04T02:30:47.247Z,0.00
2018-07-04T02:31:47.290Z,0.00
2018-07-04T02:32:47.300Z,0.00
2018-07-04T02:33:47.284Z,0.00
2018-07-04T02:34:47.473Z,0.00
2018-07-04T02:35:47.306Z,0.00
2018-07-04T02:36:47.322Z,0.00
2018-07-04T02:37:47.338Z,0.00
2018-07-04T02:38:47.351Z,0.00
2018-07-04T02:39:47.489Z,0.00
2018-07-04T02:40:47.400Z,0.00
2018-07-04T02:41:47.412Z,0.00
2018-07-04T02:42:47.400Z,0.00
2018-07-04T02:43:47.427Z,0.00
2018-07-04T02:44:47.568Z,0.00
2018-07-04T02:45:47.473Z,0.00
2018-07-04T02:46:47.487Z,0.00
2018-07-04T02:47:47.495Z,0.00
2018-07-04T02:48:47.474Z,0.00
2018-07-04T02:49:47.648Z,0.00
2018-07-04T02:50:47.514Z,0.00
2018-07-04T02:51:47.544Z,0.00
2018-07-04T02:52:47.558Z,0.00
2018-07-04T02:53:47.541Z,0.00
2018-07-04T02:54:47.733Z,0.00
2018-07-04T02:55:47.564Z,0.00
2018-07-04T02:56:47.598Z,0.00
2018-07-04T02:57:47.604Z,0.00
2018-07-04T02:58:47.631Z,0.00
2018-07-04T02:59:47.727Z,0.00
2018-07-04T03:00:47.641Z,0.00
2018-07-04T03:01:47.648Z,0.00
2018-07-04T03:02:47.666Z,0.00
2018-07-04T03:03:47.699Z,0.00
2018-07-04T03:04:47.797Z,0.00
2018-07-04T03:05:47.731Z,0.00
2018-07-04T03:06:47.713Z,0.00
2018-07-04T03:07:47.749Z,0.00
2018-07-04T03:08:47.765Z,0.00
2018-07-04T03:09:47.862Z,0.00
2018-07-04T03:10:47.773Z,0.00
2018-07-04T03:11:47.775Z,0.00
2018-07-04T03:12:47.806Z,0.00
2018-07-04T03:13:47.800Z,0.00
2018-07-04T03:14:47.944Z,0.00
2018-07-04T03:15:47.838Z,0.00
2018-07-04T03:16:47.844Z,0.00
2018-07-04T03:17:47.878Z,0.00
2018-07-04T03:18:47.896Z,0.00
2018-07-04T03:19:48.038Z,0.00
2018-07-04T03:20:47.897Z,0.00
2018-07-04T03:21:47.907Z,0.00
2018-07-04T03:22:47.917Z,0.00
2018-07-04T03:23:47.933Z,0.00
2018-07-04T03:24:47.944Z,0.00
2018-07-04T03:25:48.073Z,0.00
2018-07-04T03:26:47.969Z,0.00
2018-07-04T03:27:48.002Z,0.00
2018-07-04T03:28:48.017Z,0.00
2018-07-04T03:29:48.016Z,0.00
2018-07-04T03:30:48.151Z,0.00
2018-07-04T03:31:48.039Z,0.00
2018-07-04T03:32:48.048Z,0.00
2018-07-04T03:33:48.091Z,0.00
2018-07-04T03:34:48.077Z,0.00
2018-07-04T03:35:48.212Z,0.00
2018-07-04T03:36:48.099Z,0.00
2018-07-04T03:37:48.117Z,0.00
2018-07-04T03:38:48.125Z,0.00
2018-07-04T03:39:48.165Z,0.00
2018-07-04T03:40:48.262Z,0.00
2018-07-04T03:41:48.168Z,0.00
2018-07-04T03:42:48.190Z,0.00
2018-07-04T03:43:48.188Z,0.00
2018-07-04T03:44:48.210Z,0.00
2018-07-04T03:45:48.367Z,0.00
2018-07-04T03:46:48.257Z,0.00
2018-07-04T03:47:48.243Z,0.00
2018-07-04T03:48:48.275Z,0.00
2018-07-04T03:49:48.327Z,0.00
2018-07-04T03:50:48.435Z,0.00
2018-07-04T03:51:48.333Z,0.00
2018-07-04T03:52:48.311Z,0.00
2018-07-04T03:53:48.325Z,0.00
2018-07-04T03:54:48.339Z,0.00
2018-07-04T03:55:48.480Z,0.00
2018-07-04T03:56:48.373Z,0.00
2018-07-04T03:57:48.399Z,0.00
2018-07-04T03:58:48.388Z,0.00
2018-07-04T03:59:48.408Z,0.00
2018-07-04T04:00:48.532Z,0.00
2018-07-04T04:01:48.430Z,0.00
2018-07-04T04:02:48.440Z,0.00
2018-07-04T04:03:48.454Z,0.00
2018-07-04T04:04:48.476Z,0.00
2018-07-04T04:05:48.586Z,0.00
2018-07-04T04:06:48.492Z,0.00
2018-07-04T04:07:48.532Z,0.00
2018-07-04T04:08:48.527Z,0.00
2018-07-04T04:09:48.563Z,0.00
2018-07-04T04:10:48.727Z,0.00
2018-07-04T04:11:48.581Z,0.00
2018-07-04T04:12:48.604Z,0.00
2018-07-04T04:13:48.581Z,0.00
2018-07-04T04:14:48.619Z,0.00
2018-07-04T04:15:48.783Z,0.00
2018-07-04T04:16:48.633Z,0.00
2018-07-04T04:17:48.636Z,0.00
2018-07-04T04:18:48.661Z,0.00
2018-07-04T04:19:48.720Z,0.00
2018-07-04T04:20:48.776Z,0.00
2018-07-04T04:21:48.683Z,0.00
2018-07-04T04:22:48.697Z,0.00
2018-07-04T04:23:48.739Z,0.00
2018-07-04T04:24:48.757Z,0.00
2018-07-04T04:25:48.845Z,0.00
2018-07-04T04:26:48.774Z,0.00
2018-07-04T04:27:48.762Z,0.00
2018-07-04T04:28:48.803Z,0.00
2018-07-04T04:29:48.801Z,0.00
2018-07-04T04:30:48.900Z,0.00
2018-07-04T04:31:48.824Z,0.00
2018-07-04T04:32:48.855Z,0.00
2018-07-04T04:33:48.851Z,0.00
2018-07-04T04:34:48.878Z,0.00
2018-07-04T04:35:49.041Z,0.00
2018-07-04T04:36:48.911Z,0.00
2018-07-04T04:37:48.900Z,0.00
2018-07-04T04:38:48.908Z,0.00
2018-07-04T04:39:48.928Z,0.00
2018-07-04T04:40:48.929Z,0.00
2018-07-04T04:41:49.096Z,0.00
2018-07-04T04:42:48.980Z,0.00
2018-07-04T04:43:48.997Z,0.00
2018-07-04T04:44:48.985Z,0.00
2018-07-04T04:45:49.008Z,0.00
2018-07-04T04:46:49.156Z,0.00
2018-07-04T04:47:49.024Z,0.00
2018-07-04T04:48:49.067Z,0.00
2018-07-04T04:49:49.050Z,0.00
2018-07-04T04:50:49.098Z,0.00
2018-07-04T04:51:49.226Z,0.00
2018-07-04T04:52:49.090Z,0.00
2018-07-04T04:53:49.097Z,0.00
2018-07-04T04:54:49.162Z,0.00
2018-07-04T04:55:49.128Z,0.00
2018-07-04T04:56:49.236Z,0.00
2018-07-04T04:57:49.150Z,0.00
2018-07-04T04:58:49.162Z,0.00
2018-07-04T04:59:49.180Z,0.00
2018-07-04T05:00:49.200Z,0.00
2018-07-04T05:01:49.299Z,0.00
2018-07-04T05:02:49.239Z,0.00
2018-07-04T05:03:49.225Z,0.00
2018-07-04T05:04:49.246Z,0.00
2018-07-04T05:05:49.283Z,0.00
2018-07-04T05:06:49.371Z,0.00
2018-07-04T05:07:49.318Z,0.00
2018-07-04T05:08:49.299Z,0.00
2018-07-04T05:09:49.337Z,0.00
2018-07-04T05:10:49.324Z,0.00
2018-07-04T05:11:49.434Z,0.00
2018-07-04T05:12:49.343Z,0.00
2018-07-04T05:13:49.358Z,0.00
2018-07-04T05:14:49.385Z,0.00
2018-07-04T05:15:49.388Z,0.00
2018-07-04T05:16:49.624Z,0.00
2018-07-04T05:17:49.434Z,0.00
2018-07-04T05:18:49.433Z,0.00
2018-07-04T05:19:49.461Z,0.00
2018-07-04T05:20:49.472Z,0.00
2018-07-04T05:21:49.558Z,0.00
2018-07-04T05:22:49.493Z,0.00
2018-07-04T05:23:49.488Z,0.00
2018-07-04T05:24:49.523Z,0.00
2018-07-04T05:25:49.527Z,0.00
2018-07-04T05:26:49.622Z,0.00
2018-07-04T05:27:49.536Z,0.00
2018-07-04T05:28:49.627Z,0.00
2018-07-04T05:29:49.561Z,0.00
2018-07-04T05:30:49.599Z,0.00
2018-07-04T05:31:49.690Z,0.00
2018-07-04T05:32:49.625Z,0.00
2018-07-04T05:33:49.646Z,0.00
2018-07-04T05:34:49.638Z,0.00
2018-07-04T05:35:49.669Z,0.00
2018-07-04T05:36:49.757Z,0.00
2018-07-04T05:37:49.689Z,0.00
2018-07-04T05:38:49.683Z,0.00
2018-07-04T05:39:49.703Z,0.00
2018-07-04T05:40:49.743Z,0.00
2018-07-04T05:41:49.845Z,0.00
2018-07-04T05:42:49.749Z,0.00
2018-07-04T05:43:49.757Z,0.00
2018-07-04T05:44:49.759Z,0.00
2018-07-04T05:45:49.781Z,0.00
2018-07-04T05:46:49.934Z,0.00
2018-07-04T05:47:49.822Z,0.00
2018-07-04T05:48:49.826Z,0.00
2018-07-04T05:49:49.831Z,0.00
2018-07-04T05:50:49.841Z,0.00
2018-07-04T05:51:49.870Z,0.00
2018-07-04T05:52:50.008Z,0.00
2018-07-04T05:53:49.884Z,0.00
2018-07-04T05:54:49.882Z,0.00
2018-07-04T05:55:49.900Z,0.00
2018-07-04T05:56:49.921Z,0.00
2018-07-04T05:57:49.930Z,0.00
2018-07-04T05:58:50.043Z,0.00
2018-07-04T05:59:49.975Z,0.00
2018-07-04T06:00:49.976Z,0.00
2018-07-04T06:01:49.977Z,0.00
2018-07-04T06:02:50.045Z,0.00
2018-07-04T06:03:50.103Z,0.00
2018-07-04T06:04:50.015Z,0.00
2018-07-04T06:05:50.050Z,0.00
2018-07-04T06:06:50.035Z,0.00
2018-07-04T06:07:50.059Z,0.00
2018-07-04T06:08:50.185Z,0.00
2018-07-04T06:09:50.082Z,0.00
2018-07-04T06:10:50.117Z,0.00
2018-07-04T06:11:50.102Z,0.00
2018-07-04T06:12:50.142Z,0.00
2018-07-04T06:13:50.290Z,0.00
2018-07-04T06:14:50.156Z,0.00
2018-07-04T06:15:50.156Z,0.00
2018-07-04T06:16:50.168Z,0.00
2018-07-04T06:17:50.180Z,0.00
2018-07-04T06:18:50.345Z,0.00
2018-07-04T06:19:50.232Z,0.00
2018-07-04T06:20:50.244Z,0.00
2018-07-04T06:21:50.237Z,0.00
2018-07-04T06:22:50.275Z,0.00
2018-07-04T06:23:50.359Z,0.00
2018-07-04T06:24:50.355Z,0.00
2018-07-04T06:25:50.286Z,0.00
2018-07-04T06:26:50.327Z,0.00
2018-07-04T06:27:50.338Z,0.00
2018-07-04T06:28:50.500Z,0.00
2018-07-04T06:29:50.343Z,0.00
2018-07-04T06:30:50.372Z,0.00
2018-07-04T06:31:50.386Z,0.00
2018-07-04T06:32:50.379Z,0.00
2018-07-04T06:33:50.498Z,0.00
2018-07-04T06:34:50.403Z,0.00
2018-07-04T06:35:50.409Z,0.00
2018-07-04T06:36:50.457Z,0.00
2018-07-04T06:37:50.435Z,0.00
2018-07-04T06:38:50.553Z,0.00
2018-07-04T06:39:50.470Z,0.00
2018-07-04T06:40:50.498Z,0.00
2018-07-04T06:41:50.495Z,0.00
2018-07-04T06:42:50.536Z,0.00
2018-07-04T06:43:50.645Z,0.00
2018-07-04T06:44:50.558Z,0.00
2018-07-04T06:45:50.551Z,0.00
2018-07-04T06:46:50.582Z,0.00
2018-07-04T06:47:50.593Z,0.00
2018-07-04T06:48:50.718Z,0.00
2018-07-04T06:49:50.608Z,0.00
2018-07-04T06:50:50.634Z,0.00
2018-07-04T06:51:50.621Z,0.00
2018-07-04T06:52:50.638Z,0.00
2018-07-04T06:53:50.800Z,0.00
2018-07-04T06:54:50.673Z,0.00
2018-07-04T06:55:50.670Z,0.00
2018-07-04T06:56:50.684Z,0.00
2018-07-04T06:57:50.723Z,0.00
2018-07-04T06:58:50.859Z,0.00
2018-07-04T06:59:50.755Z,0.00
2018-07-04T07:00:50.769Z,0.00
2018-07-04T07:01:50.783Z,0.00
2018-07-04T07:02:50.791Z,0.00
2018-07-04T07:03:50.889Z,0.00
2018-07-04T07:04:50.791Z,0.00
2018-07-04T07:05:50.831Z,0.00
2018-07-04T07:06:50.820Z,0.00
2018-07-04T07:07:50.834Z,0.00
2018-07-04T07:08:50.942Z,0.00
2018-07-04T07:09:50.847Z,0.00
2018-07-04T07:10:50.890Z,0.00
2018-07-04T07:11:50.876Z,0.00
2018-07-04T07:12:50.903Z,0.00
2018-07-04T07:13:50.918Z,0.00
2018-07-04T07:14:51.095Z,0.00
2018-07-04T07:15:50.959Z,0.00
2018-07-04T07:16:50.950Z,0.00
2018-07-04T07:17:50.980Z,0.00
2018-07-04T07:18:50.997Z,0.00
2018-07-04T07:19:51.087Z,0.00
2018-07-04T07:20:51.026Z,0.00
2018-07-04T07:21:51.007Z,0.00
2018-07-04T07:22:51.046Z,0.00
2018-07-04T07:23:51.039Z,0.00
2018-07-04T07:24:51.158Z,0.00
2018-07-04T07:25:51.057Z,0.00
2018-07-04T07:26:51.071Z,0.00
2018-07-04T07:27:51.109Z,0.00
2018-07-04T07:28:51.096Z,0.00
2018-07-04T07:29:51.210Z,0.00
2018-07-04T07:30:51.121Z,0.00
2018-07-04T07:31:51.150Z,0.00
2018-07-04T07:32:51.150Z,0.00
2018-07-04T07:33:51.272Z,0.00
2018-07-04T07:34:51.281Z,0.00
2018-07-04T07:35:51.196Z,0.00
2018-07-04T07:36:51.224Z,0.00
2018-07-04T07:37:51.236Z,0.00
2018-07-04T07:38:51.226Z,0.00
2018-07-04T07:39:51.387Z,0.00
2018-07-04T07:40:51.281Z,0.00
2018-07-04T07:41:51.289Z,0.00
2018-07-04T07:42:51.299Z,0.00
2018-07-04T07:43:51.288Z,0.00
2018-07-04T07:44:51.481Z,0.00
2018-07-04T07:45:51.324Z,0.00
2018-07-04T07:46:51.339Z,0.00
2018-07-04T07:47:51.341Z,0.00
2018-07-04T07:48:51.405Z,0.00
2018-07-04T07:49:51.494Z,0.00
2018-07-04T07:50:51.377Z,0.00
2018-07-04T07:51:51.394Z,0.00
2018-07-04T07:52:51.423Z,0.00
2018-07-04T07:53:51.443Z,0.00
2018-07-04T07:54:51.561Z,0.00
2018-07-04T07:55:51.440Z,0.00
2018-07-04T07:56:51.457Z,0.00
2018-07-04T07:57:51.470Z,0.00
2018-07-04T07:58:51.495Z,0.00
2018-07-04T07:59:51.591Z,0.00
2018-07-04T08:00:51.508Z,0.00
2018-07-04T08:01:51.570Z,0.00
2018-07-04T08:02:51.559Z,0.00
2018-07-04T08:03:51.543Z,0.00
2018-07-04T08:04:51.714Z,0.00
2018-07-04T08:05:51.586Z,0.00
2018-07-04T08:06:51.606Z,0.00
2018-07-04T08:07:51.610Z,0.00
2018-07-04T08:08:51.636Z,0.00
2018-07-04T08:09:51.723Z,0.00
2018-07-04T08:10:51.659Z,0.00
2018-07-04T08:11:51.651Z,0.00
2018-07-04T08:12:51.666Z,0.00
2018-07-04T08:13:51.675Z,0.00
2018-07-04T08:14:51.787Z,0.00
2018-07-04T08:15:51.705Z,0.00
2018-07-04T08:16:51.735Z,0.00
2018-07-04T08:17:51.748Z,0.00
2018-07-04T08:18:51.814Z,0.00
2018-07-04T08:19:51.909Z,0.00
2018-07-04T08:20:51.768Z,0.00
2018-07-04T08:21:51.773Z,0.00
2018-07-04T08:22:51.817Z,0.00
2018-07-04T08:23:51.798Z,0.00
2018-07-04T08:24:51.814Z,0.00
2018-07-04T08:25:51.928Z,0.00
2018-07-04T08:26:51.836Z,0.00
2018-07-04T08:27:51.880Z,0.00
2018-07-04T08:28:51.867Z,0.00
2018-07-04T08:29:51.902Z,0.00
2018-07-04T08:30:51.916Z,0.00
2018-07-04T08:31:52.050Z,0.00
2018-07-04T08:32:51.914Z,0.00
2018-07-04T08:33:51.926Z,0.00
2018-07-04T08:34:51.936Z,0.00
2018-07-04T08:35:51.951Z,0.00
2018-07-04T08:36:52.117Z,0.00
2018-07-04T08:37:52.004Z,0.00
2018-07-04T08:38:52.022Z,0.00
2018-07-04T08:39:52.031Z,0.00
2018-07-04T08:40:52.023Z,0.00
2018-07-04T08:41:52.129Z,0.00
2018-07-04T08:42:52.047Z,0.00
2018-07-04T08:43:52.053Z,0.00
2018-07-04T08:44:52.071Z,0.00
2018-07-04T08:45:52.110Z,0.00
2018-07-04T08:46:52.200Z,0.00
2018-07-04T08:47:52.105Z,0.00
2018-07-04T08:48:52.124Z,0.00
2018-07-04T08:49:52.135Z,0.00
2018-07-04T08:50:52.213Z,0.00
2018-07-04T08:51:52.256Z,0.00
2018-07-04T08:52:52.227Z,0.00
2018-07-04T08:53:52.186Z,0.00
2018-07-04T08:54:52.205Z,0.00
2018-07-04T08:55:52.236Z,0.00
2018-07-04T08:56:52.400Z,0.00
2018-07-04T08:57:52.251Z,0.00
2018-07-04T08:58:52.279Z,0.00
2018-07-04T08:59:52.290Z,0.00
2018-07-04T09:00:52.297Z,0.00
2018-07-04T09:01:52.388Z,0.00
2018-07-04T09:02:52.300Z,0.00
2018-07-04T09:03:52.307Z,0.00
2018-07-04T09:04:52.326Z,0.00
2018-07-04T09:05:52.338Z,0.00
2018-07-04T09:06:52.454Z,0.00
2018-07-04T09:07:52.359Z,0.00
2018-07-04T09:08:52.408Z,0.00
2018-07-04T09:09:52.386Z,0.00
2018-07-04T09:10:52.401Z,0.00
2018-07-04T09:11:52.570Z,0.00
2018-07-04T09:12:52.425Z,0.00
2018-07-04T09:13:52.439Z,0.00
2018-07-04T09:14:52.484Z,0.00
2018-07-04T09:15:52.492Z,0.00
2018-07-04T09:16:52.593Z,0.00
2018-07-04T09:17:52.515Z,0.00
2018-07-04T09:18:52.501Z,0.00
2018-07-04T09:19:52.516Z,0.00
2018-07-04T09:20:52.548Z,0.00
2018-07-04T09:21:52.644Z,0.00
2018-07-04T09:22:52.566Z,0.00
2018-07-04T09:23:52.577Z,0.00
2018-07-04T09:24:52.606Z,0.00
2018-07-04T09:25:52.594Z,0.00
2018-07-04T09:26:52.712Z,4.00
2018-07-04T09:27:52.645Z,0.00
2018-07-04T09:28:52.635Z,0.00
2018-07-04T09:29:52.673Z,4.00
2018-07-04T09:30:52.664Z,0.00
2018-07-04T09:31:52.822Z,4.00
2018-07-04T09:32:52.685Z,4.00
2018-07-04T09:33:52.698Z,4.00
2018-07-04T09:34:52.733Z,4.00
2018-07-04T09:35:52.719Z,8.00
2018-07-04T09:36:52.886Z,8.00
2018-07-04T09:37:52.749Z,16.00
2018-07-04T09:38:52.788Z,20.00
2018-07-04T09:39:52.770Z,20.00
2018-07-04T09:40:52.789Z,24.00
2018-07-04T09:41:52.805Z,32.00
2018-07-04T09:42:52.923Z,36.00
2018-07-04T09:43:52.867Z,40.00
2018-07-04T09:44:52.838Z,48.00
2018-07-04T09:45:52.860Z,60.00
2018-07-04T09:46:52.859Z,64.00
2018-07-04T09:47:52.910Z,72.00
2018-07-04T09:48:53.036Z,80.00
2018-07-04T09:49:52.900Z,88.00
2018-07-04T09:50:52.942Z,100.00
2018-07-04T09:51:52.925Z,112.00
2018-07-04T09:52:52.939Z,128.00
2018-07-04T09:53:53.081Z,144.00
2018-07-04T09:54:52.989Z,160.00
2018-07-04T09:55:52.980Z,172.00
2018-07-04T09:56:53.004Z,196.00
2018-07-04T09:57:53.030Z,208.00
2018-07-04T09:58:53.253Z,224.00
2018-07-04T09:59:53.056Z,252.00
2018-07-04T10:00:53.065Z,300.00
2018-07-04T10:01:53.068Z,324.00
2018-07-04T10:02:53.069Z,332.00
2018-07-04T10:03:53.252Z,328.00
2018-07-04T10:04:53.117Z,368.00
2018-07-04T10:05:53.122Z,384.00
2018-07-04T10:06:53.125Z,388.00
2018-07-04T10:07:53.129Z,440.00
2018-07-04T10:08:53.319Z,468.00
2018-07-04T10:09:53.163Z,504.00
2018-07-04T10:10:53.169Z,600.00
2018-07-04T10:11:53.182Z,620.00
2018-07-04T10:12:53.222Z,644.00
2018-07-04T10:13:53.386Z,676.00
2018-07-04T10:14:53.225Z,692.00
2018-07-04T10:15:53.242Z,728.00
2018-07-04T10:16:53.246Z,820.00
2018-07-04T10:17:53.259Z,964.00
2018-07-04T10:18:53.402Z,904.00
2018-07-04T10:19:53.285Z,896.00
2018-07-04T10:20:53.291Z,852.00
2018-07-04T10:21:53.337Z,792.00
2018-07-04T10:22:53.332Z,832.00
2018-07-04T10:23:53.450Z,936.00
2018-07-04T10:24:53.358Z,928.00
2018-07-04T10:25:53.363Z,1088.00
2018-07-04T10:26:53.377Z,1084.00
2018-07-04T10:27:53.387Z,1124.00
2018-07-04T10:28:53.506Z,1052.00
2018-07-04T10:29:53.444Z,1288.00
2018-07-04T10:30:53.426Z,1412.00
2018-07-04T10:31:53.431Z,1220.00
2018-07-04T10:32:53.458Z,1124.00
2018-07-04T10:33:53.591Z,1152.00
2018-07-04T10:34:53.508Z,1332.00
2018-07-04T10:35:53.489Z,1608.00
2018-07-04T10:36:53.531Z,1720.00
2018-07-04T10:37:53.537Z,1516.00
2018-07-04T10:38:53.632Z,1276.00
2018-07-04T10:39:53.544Z,1212.00
2018-07-04T10:40:53.580Z,1416.00
2018-07-04T10:41:53.571Z,1816.00
2018-07-04T10:42:53.609Z,1832.00
2018-07-04T10:43:53.720Z,1452.00
2018-07-04T10:44:53.641Z,1680.00
2018-07-04T10:45:53.651Z,1692.00
2018-07-04T10:46:53.636Z,1740.00
2018-07-04T10:47:53.672Z,1760.00
2018-07-04T10:48:53.810Z,1936.00
2018-07-04T10:49:53.704Z,2064.00
2018-07-04T10:50:53.709Z,1996.00
2018-07-04T10:51:53.725Z,1700.00
2018-07-04T10:52:53.741Z,1608.00
2018-07-04T10:53:53.831Z,1704.00
2018-07-04T10:54:53.736Z,1728.00
2018-07-04T10:55:53.786Z,1872.00
2018-07-04T10:56:53.766Z,1904.00
2018-07-04T10:57:53.804Z,1928.00
2018-07-04T10:58:53.897Z,1900.00
2018-07-04T10:59:53.839Z,1588.00
2018-07-04T11:00:53.845Z,1580.00
2018-07-04T11:01:53.841Z,1648.00
2018-07-04T11:02:53.848Z,1824.00
2018-07-04T11:03:53.994Z,1764.00
2018-07-04T11:04:53.898Z,1592.00
2018-07-04T11:05:53.889Z,1548.00
2018-07-04T11:06:53.910Z,1500.00
2018-07-04T11:07:53.932Z,1500.00
2018-07-04T11:08:54.082Z,1520.00
2018-07-04T11:09:53.945Z,1548.00
2018-07-04T11:10:53.980Z,1648.00
2018-07-04T11:11:53.992Z,1636.00
2018-07-04T11:12:53.988Z,1728.00
2018-07-04T11:13:54.120Z,1576.00
2018-07-04T11:14:54.014Z,1492.00
2018-07-04T11:15:54.044Z,1548.00
2018-07-04T11:16:54.068Z,1444.00
2018-07-04T11:17:54.047Z,1216.00
2018-07-04T11:18:54.221Z,1344.00
2018-07-04T11:19:54.077Z,1404.00
2018-07-04T11:20:54.093Z,1436.00
2018-07-04T11:21:54.100Z,1660.00
2018-07-04T11:22:54.142Z,1528.00
2018-07-04T11:23:54.230Z,1700.00
2018-07-04T11:24:54.145Z,1676.00
2018-07-04T11:25:54.182Z,2184.00
2018-07-04T11:26:54.170Z,2280.00
2018-07-04T11:27:54.212Z,2480.00
2018-07-04T11:28:54.307Z,2656.00
2018-07-04T11:29:54.211Z,2832.00
2018-07-04T11:30:54.215Z,2436.00
2018-07-04T11:31:54.242Z,1812.00
2018-07-04T11:32:54.276Z,1520.00
2018-07-04T11:33:54.425Z,1552.00
2018-07-04T11:34:54.275Z,1744.00
2018-07-04T11:35:54.289Z,1588.00
2018-07-04T11:36:54.302Z,1576.00
2018-07-04T11:37:54.320Z,1668.00
2018-07-04T11:38:54.485Z,1648.00
2018-07-04T11:39:54.342Z,1476.00
2018-07-04T11:40:54.384Z,1576.00
2018-07-04T11:41:54.398Z,1884.00
2018-07-04T11:42:54.387Z,2136.00
2018-07-04T11:43:54.549Z,2412.00
2018-07-04T11:44:54.439Z,2576.00
2018-07-04T11:45:54.458Z,2832.00
2018-07-04T11:46:54.461Z,2696.00
2018-07-04T11:47:54.458Z,2312.00
2018-07-04T11:48:54.569Z,2116.00
2018-07-04T11:49:54.516Z,2340.00
2018-07-04T11:50:54.519Z,2748.00
2018-07-04T11:51:54.508Z,4144.00
2018-07-04T11:52:54.535Z,5652.00
2018-07-04T11:53:54.636Z,4736.00
2018-07-04T11:54:54.573Z,3712.00
2018-07-04T11:55:54.593Z,3672.00
2018-07-04T11:56:54.585Z,3084.00
2018-07-04T11:57:54.604Z,3352.00
2018-07-04T11:58:54.765Z,3376.00
2018-07-04T11:59:54.611Z,4840.00
2018-07-04T12:00:54.627Z,6044.00
2018-07-04T12:01:54.640Z,7896.00
2018-07-04T12:02:54.683Z,7660.00
2018-07-04T12:03:54.836Z,7744.00
2018-07-04T12:04:54.685Z,7808.00
2018-07-04T12:05:54.711Z,8360.00
2018-07-04T12:06:54.715Z,7200.00
2018-07-04T12:07:54.728Z,5316.00
2018-07-04T12:08:54.752Z,5712.00
2018-07-04T12:09:54.855Z,7584.00
2018-07-04T12:10:54.852Z,8268.00
2018-07-04T12:11:54.787Z,11972.00
2018-07-04T12:12:54.826Z,21920.00
2018-07-04T12:13:54.816Z,24960.00
2018-07-04T12:14:54.837Z,15080.00
2018-07-04T12:15:54.993Z,17952.00
2018-07-04T12:16:54.859Z,14784.00
2018-07-04T12:17:54.897Z,11172.00
2018-07-04T12:18:54.888Z,9104.00
2018-07-04T12:19:54.930Z,8900.00
2018-07-04T12:20:55.088Z,7512.00
2018-07-04T12:21:54.936Z,7700.00
2018-07-04T12:22:54.953Z,9096.00
2018-07-04T12:23:54.994Z,9912.00
2018-07-04T12:24:54.983Z,8864.00
2018-07-04T12:25:55.110Z,9640.00
2018-07-04T12:26:55.067Z,16096.00
2018-07-04T12:27:55.054Z,12020.00
2018-07-04T12:28:55.043Z,12816.00
2018-07-04T12:29:55.089Z,18752.00
2018-07-04T12:30:55.183Z,11980.00
2018-07-04T12:31:55.117Z,11852.00
2018-07-04T12:32:55.106Z,11744.00
2018-07-04T12:33:55.137Z,15968.00
2018-07-04T12:34:55.150Z,12896.00
2018-07-04T12:35:55.339Z,9324.00
2018-07-04T12:36:55.176Z,7996.00
2018-07-04T12:37:55.223Z,8760.00
2018-07-04T12:38:55.213Z,17088.00
2018-07-04T12:39:55.225Z,26976.00
2018-07-04T12:40:55.365Z,15376.00
2018-07-04T12:41:55.280Z,28128.00
2018-07-04T12:42:55.278Z,33824.00
2018-07-04T12:43:55.299Z,10960.00
2018-07-04T12:44:55.332Z,17856.00
2018-07-04T12:45:55.423Z,33088.00
2018-07-04T12:46:55.395Z,10472.00
2018-07-04T12:47:55.362Z,14536.00
2018-07-04T12:48:55.389Z,11152.00
2018-07-04T12:49:55.391Z,11228.00
2018-07-04T12:50:55.534Z,17024.00
2018-07-04T12:51:55.451Z,19392.00
2018-07-04T12:52:55.468Z,39936.00
2018-07-04T12:53:55.527Z,23904.00
2018-07-04T12:54:55.476Z,13540.00
2018-07-04T12:55:55.658Z,12328.00
2018-07-04T12:56:55.522Z,11016.00
2018-07-04T12:57:55.538Z,10752.00
2018-07-04T12:58:55.551Z,9412.00
2018-07-04T12:59:55.569Z,7768.00